createdAt,value
2022-11-10T00:00:15.468Z,58.17
2022-11-10T00:03:07.808Z,52.60
2022-11-10T00:05:59.067Z,57.15
2022-11-10T00:08:45.618Z,51.85
2022-11-10T00:11:33.062Z,50.58
2022-11-10T00:14:44.197Z,56.03
2022-11-10T00:17:37.750Z,54.88
2022-11-10T00:20:24.614Z,51.78
2022-11-10T00:23:16.729Z,53.22
2022-11-10T00:26:11.458Z,55.95
2022-11-10T00:29:01.918Z,55.13
2022-11-10T00:31:53.545Z,60.75
2022-11-10T00:34:43.055Z,54.08
2022-11-10T00:37:33.443Z,54.60
2022-11-10T00:40:27.290Z,55.83
2022-11-10T00:43:14.638Z,58.58
2022-11-10T00:46:05.521Z,55.50
2022-11-10T00:48:56.498Z,56.03
2022-11-10T00:51:45.206Z,62.22
2022-11-10T00:54:34.502Z,54.92
2022-11-10T00:57:22.240Z,63.20
2022-11-10T01:00:17.581Z,56.05
2022-11-10T01:03:06.836Z,58.17
2022-11-10T01:05:56.204Z,56.15
2022-11-10T01:08:46.634Z,51.17
2022-11-10T01:11:33.909Z,58.47
2022-11-10T01:14:22.919Z,55.55
2022-11-10T01:17:14.012Z,57.53
2022-11-10T01:20:06.496Z,57.55
2022-11-10T01:22:56.604Z,56.17
2022-11-10T01:25:47.209Z,54.88
2022-11-10T01:28:39.524Z,64.97
2022-11-10T01:31:30.348Z,62.88
2022-11-10T01:34:23.515Z,60.92
2022-11-10T01:37:16.938Z,53.22
2022-11-10T01:40:07.033Z,54.45
2022-11-10T01:42:57.526Z,53.95
2022-11-10T01:46:06.257Z,52.28
2022-11-10T01:49:06.928Z,49.30
2022-11-10T01:52:13.590Z,50.53
2022-11-10T01:55:03.093Z,49.13
2022-11-10T01:57:50.922Z,50.90
2022-11-10T02:00:41.535Z,52.35
2022-11-10T02:03:39.689Z,52.55
2022-11-10T02:06:33.804Z,50.83
2022-11-10T02:09:23.323Z,49.53
2022-11-10T02:12:16.911Z,48.67
2022-11-10T02:15:16.334Z,54.08
2022-11-10T02:18:06.273Z,54.63
2022-11-10T02:20:56.358Z,49.40
2022-11-10T02:23:55.657Z,53.83
2022-11-10T02:27:09.020Z,45.67
2022-11-10T02:29:57.373Z,49.80
2022-11-10T02:32:48.382Z,54.60
2022-11-10T02:35:37.123Z,54.25
2022-11-10T02:38:26.001Z,54.05
2022-11-10T02:44:20.816Z,51.78
2022-11-10T02:47:13.435Z,53.17
2022-11-10T02:50:03.302Z,57.03
2022-11-10T02:52:54.051Z,62.45
2022-11-10T02:55:44.666Z,56.08
2022-11-10T02:58:34.454Z,56.38
2022-11-10T03:01:25.054Z,53.10
2022-11-10T03:04:16.587Z,55.00
2022-11-10T03:07:08.004Z,53.47
2022-11-10T03:09:58.407Z,58.53
2022-11-10T03:12:46.132Z,55.20
2022-11-10T03:15:38.231Z,52.40
2022-11-10T03:18:28.209Z,50.88
2022-11-10T03:21:20.167Z,52.80
2022-11-10T03:24:09.610Z,52.97
2022-11-10T03:26:56.845Z,50.95
2022-11-10T03:29:46.697Z,53.88
2022-11-10T03:32:40.057Z,52.25
2022-11-10T03:35:28.170Z,57.75
2022-11-10T03:38:19.959Z,55.40
2022-11-10T03:41:19.847Z,50.47
2022-11-10T03:44:07.564Z,56.38
2022-11-10T03:46:55.891Z,54.22
2022-11-10T03:49:46.637Z,56.72
2022-11-10T03:52:39.514Z,53.92
2022-11-10T03:55:28.865Z,50.17
2022-11-10T03:58:23.799Z,54.55
2022-11-10T04:01:11.681Z,54.17
2022-11-10T04:03:59.851Z,55.85
2022-11-10T04:07:11.353Z,52.78
2022-11-10T04:10:01.166Z,58.78
2022-11-10T04:13:09.326Z,59.42
2022-11-10T04:15:59.947Z,57.45
2022-11-10T04:18:51.162Z,55.85
2022-11-10T04:21:42.794Z,64.80
2022-11-10T04:24:36.264Z,54.90
2022-11-10T04:27:22.912Z,56.40
2022-11-10T04:30:13.988Z,50.05
2022-11-10T04:33:03.525Z,52.03
2022-11-10T04:35:58.599Z,47.90
2022-11-10T04:38:48.671Z,53.28
2022-11-10T04:41:40.336Z,51.28
2022-11-10T04:44:29.084Z,54.33
2022-11-10T04:47:18.410Z,52.90
2022-11-10T04:50:06.417Z,59.35
2022-11-10T04:52:54.218Z,53.28
2022-11-10T04:55:44.967Z,54.95
2022-11-10T04:58:34.583Z,59.78
2022-11-10T05:01:26.605Z,57.80
2022-11-10T05:04:16.778Z,63.13
2022-11-10T05:07:05.603Z,59.10
2022-11-10T05:09:57.592Z,60.92
2022-11-10T05:12:49.296Z,67.78
2022-11-10T05:15:35.879Z,66.10
2022-11-10T05:18:27.754Z,63.33
2022-11-10T05:21:17.646Z,66.65
2022-11-10T05:24:09.034Z,68.18
2022-11-10T05:27:02.726Z,68.10
2022-11-10T05:29:50.346Z,67.75
2022-11-10T05:32:41.780Z,62.67
2022-11-10T05:35:32.009Z,65.20
2022-11-10T05:38:18.942Z,68.82
2022-11-10T05:41:09.572Z,66.45
2022-11-10T05:43:59.316Z,71.65
2022-11-10T05:47:09.643Z,69.25
2022-11-10T05:49:59.515Z,73.07
2022-11-10T05:52:52.777Z,69.30
2022-11-10T05:55:43.237Z,69.22
2022-11-10T05:58:31.473Z,71.20
2022-11-10T06:01:24.601Z,72.60
2022-11-10T06:04:16.683Z,74.80
2022-11-10T06:07:04.422Z,83.32
2022-11-10T06:09:55.978Z,75.03
2022-11-10T06:12:47.040Z,113.40
2022-11-10T06:15:35.479Z,110.97
2022-11-10T06:18:24.241Z,79.68
2022-11-10T06:21:13.128Z,79.70
2022-11-10T06:24:03.428Z,80.47
2022-11-10T06:26:50.559Z,78.32
2022-11-10T06:29:42.712Z,79.43
2022-11-10T06:32:31.121Z,69.70
2022-11-10T06:35:20.192Z,68.15
2022-11-10T06:38:13.280Z,64.68
2022-11-10T06:41:25.425Z,67.05
2022-11-10T06:44:18.947Z,66.95
2022-11-10T06:47:08.787Z,65.25
2022-11-10T06:49:59.147Z,65.93
2022-11-10T06:52:58.368Z,65.00
2022-11-10T06:55:49.183Z,62.70
2022-11-10T06:58:38.809Z,65.93
2022-11-10T07:01:31.703Z,70.50
2022-11-10T07:04:20.997Z,56.85
2022-11-10T07:07:12.670Z,62.40
2022-11-10T07:10:06.940Z,63.83
2022-11-10T07:13:00.993Z,71.25
2022-11-10T07:15:50.171Z,62.63
2022-11-10T07:18:39.140Z,59.08
2022-11-10T07:21:28.644Z,62.45
2022-11-10T07:24:21.028Z,70.53
2022-11-10T07:27:12.176Z,72.13
2022-11-10T07:30:02.914Z,71.63
2022-11-10T07:32:59.341Z,73.05
2022-11-10T07:35:58.175Z,74.47
2022-11-10T07:38:51.001Z,80.65
2022-11-10T07:41:43.399Z,81.60
2022-11-10T07:44:32.717Z,72.90
2022-11-10T07:47:21.881Z,75.15
2022-11-10T07:50:11.007Z,81.75
2022-11-10T07:53:19.160Z,64.25
2022-11-10T07:56:06.659Z,66.90
2022-11-10T07:58:57.523Z,61.63
2022-11-10T08:01:47.875Z,70.85
2022-11-10T08:04:37.107Z,60.17
2022-11-10T08:07:26.491Z,68.53
2022-11-10T08:10:15.519Z,65.72
2022-11-10T08:13:11.274Z,67.47
2022-11-10T08:15:59.604Z,69.93
2022-11-10T08:18:49.786Z,67.00
2022-11-10T08:21:43.073Z,66.88
2022-11-10T08:24:32.583Z,69.15
2022-11-10T08:27:20.334Z,73.32
2022-11-10T08:30:09.177Z,73.97
2022-11-10T08:33:03.793Z,77.15
2022-11-10T08:35:53.617Z,71.17
2022-11-10T08:38:42.491Z,66.85
2022-11-10T08:41:28.581Z,69.10
2022-11-10T08:44:21.055Z,64.80
2022-11-10T08:47:10.697Z,68.53
2022-11-10T08:50:02.521Z,63.63
2022-11-10T08:52:50.770Z,61.63
2022-11-10T08:55:42.096Z,61.70
2022-11-10T08:58:33.927Z,63.97
2022-11-10T09:01:22.783Z,58.50
2022-11-10T09:04:11.524Z,58.95
2022-11-10T09:07:03.212Z,65.47
2022-11-10T09:10:06.752Z,56.05
2022-11-10T09:13:09.222Z,58.97
2022-11-10T09:16:11.954Z,61.08
2022-11-10T09:19:03.003Z,64.93
2022-11-10T09:21:53.423Z,55.65
2022-11-10T09:24:43.830Z,57.15
2022-11-10T09:27:37.104Z,55.22
2022-11-10T09:30:31.432Z,48.35
2022-11-10T09:33:20.596Z,52.70
2022-11-10T09:36:10.363Z,55.30
2022-11-10T09:39:00.688Z,51.53
2022-11-10T09:41:53.563Z,47.88
2022-11-10T09:44:55.031Z,55.35
2022-11-10T09:47:59.573Z,50.83
2022-11-10T09:51:19.481Z,52.50
2022-11-10T09:54:17.384Z,47.30
2022-11-10T09:57:07.394Z,49.53
2022-11-10T09:59:58.201Z,52.85
2022-11-10T10:03:04.590Z,47.85
2022-11-10T10:06:05.867Z,49.35
2022-11-10T10:09:16.441Z,47.53
2022-11-10T10:12:53.850Z,45.70
2022-11-10T10:16:03.650Z,44.70
2022-11-10T10:19:29.524Z,45.88
2022-11-10T10:22:56.749Z,47.33
2022-11-10T10:25:45.923Z,46.78
2022-11-10T10:28:45.745Z,48.03
2022-11-10T10:31:50.265Z,50.13
2022-11-10T10:34:40.667Z,44.65
2022-11-10T10:37:48.962Z,40.53
2022-11-10T10:40:38.271Z,44.90
2022-11-10T10:43:30.674Z,35.25
2022-11-10T10:46:24.909Z,31.00
2022-11-10T10:49:31.150Z,41.63
2022-11-10T10:52:34.767Z,38.08
2022-11-10T10:55:30.046Z,40.65
2022-11-10T10:58:33.838Z,32.33
2022-11-10T11:01:41.535Z,28.45
2022-11-10T11:04:37.687Z,31.98
2022-11-10T11:07:28.551Z,26.00
2022-11-10T11:10:26.034Z,30.02
2022-11-10T11:13:18.297Z,33.38
2022-11-10T11:16:10.590Z,35.47
2022-11-10T11:19:00.999Z,32.78
2022-11-10T11:22:30.026Z,33.45
2022-11-10T11:25:44.055Z,30.70
2022-11-10T11:29:01.768Z,25.08
2022-11-10T11:32:25.658Z,25.70
2022-11-10T11:35:26.437Z,34.10
2022-11-10T11:38:49.237Z,31.15
2022-11-10T11:42:18.522Z,30.00
2022-11-10T11:45:20.814Z,29.90
2022-11-10T11:48:22.060Z,33.63
2022-11-10T11:51:30.009Z,28.05
2022-11-10T11:54:39.574Z,33.00
2022-11-10T11:58:25.035Z,31.55
2022-11-10T12:01:37.150Z,41.15
2022-11-10T12:04:51.957Z,41.97
2022-11-10T12:11:15.385Z,40.22
2022-11-10T12:14:07.823Z,34.05
2022-11-10T12:17:37.492Z,39.28
2022-11-10T12:20:35.797Z,36.95
2022-11-10T12:23:59.620Z,47.30
2022-11-10T12:27:26.774Z,41.05
2022-11-10T12:30:15.342Z,38.90
2022-11-10T12:33:44.430Z,36.72
2022-11-10T12:36:34.727Z,40.10
2022-11-10T12:39:29.281Z,38.17
2022-11-10T12:42:22.284Z,33.22
2022-11-10T12:45:34.860Z,34.67
2022-11-10T12:48:22.854Z,32.72
2022-11-10T12:51:38.953Z,34.75
2022-11-10T12:54:30.770Z,37.78
2022-11-10T12:57:25.675Z,34.08
2022-11-10T13:00:42.286Z,28.10
2022-11-10T13:03:57.066Z,28.73
2022-11-10T13:07:10.241Z,26.50
2022-11-10T13:10:26.394Z,30.55
2022-11-10T13:13:15.631Z,29.38
2022-11-10T13:16:03.641Z,26.05
2022-11-10T13:18:53.970Z,30.92
2022-11-10T13:22:11.679Z,26.88
2022-11-10T13:25:46.549Z,29.25
2022-11-10T13:28:50.607Z,27.40
2022-11-10T13:31:49.259Z,32.30
2022-11-10T13:34:51.883Z,31.38
2022-11-10T13:37:45.757Z,28.95
2022-11-10T13:40:40.320Z,26.33
2022-11-10T13:43:31.683Z,25.98
2022-11-10T13:46:18.788Z,27.50
2022-11-10T13:49:38.219Z,26.40
2022-11-10T13:53:14.528Z,37.30
2022-11-10T13:56:35.871Z,28.75
2022-11-10T13:59:29.788Z,34.05
2022-11-10T14:02:49.841Z,35.35
2022-11-10T14:05:43.255Z,31.42
2022-11-10T14:11:51.531Z,29.65
2022-11-10T14:15:10.136Z,27.90
2022-11-10T14:18:01.758Z,27.63
2022-11-10T14:21:11.976Z,32.35
2022-11-10T14:24:40.939Z,32.08
2022-11-10T14:27:38.660Z,33.25
2022-11-10T14:30:34.782Z,32.30
2022-11-10T14:33:23.994Z,25.13
2022-11-10T14:36:25.880Z,23.92
2022-11-10T14:39:17.838Z,23.58
2022-11-10T14:42:13.263Z,29.85
2022-11-10T14:45:27.654Z,31.63
2022-11-10T14:48:23.702Z,36.35
2022-11-10T14:51:20.532Z,40.15
2022-11-10T14:54:25.951Z,41.70
2022-11-10T14:57:19.066Z,47.72
2022-11-10T15:00:19.566Z,41.90
2022-11-10T15:03:17.895Z,43.20
2022-11-10T15:06:12.192Z,48.28
2022-11-10T15:09:14.454Z,42.78
2022-11-10T15:12:16.376Z,49.45
2022-11-10T15:15:15.793Z,44.35
2022-11-10T15:18:03.162Z,46.70
2022-11-10T15:21:09.018Z,49.58
2022-11-10T15:26:50.968Z,49.97
2022-11-10T15:29:39.630Z,52.45
2022-11-10T15:32:49.139Z,57.67
2022-11-10T15:35:41.548Z,53.70
2022-11-10T15:38:33.857Z,59.42
2022-11-10T15:41:41.117Z,57.97
2022-11-10T15:44:32.602Z,62.25
2022-11-10T15:47:23.248Z,62.85
2022-11-10T15:50:13.740Z,58.85
2022-11-10T15:53:03.340Z,61.83
2022-11-10T15:55:52.965Z,57.80
2022-11-10T15:58:55.432Z,57.97
2022-11-10T16:01:48.664Z,41.90
2022-11-10T16:04:34.618Z,54.42
2022-11-10T16:07:28.210Z,59.80
2022-11-10T16:10:15.665Z,52.30
2022-11-10T16:13:07.832Z,51.65
2022-11-10T16:15:58.826Z,57.40
2022-11-10T16:18:47.639Z,56.17
2022-11-10T16:21:37.682Z,56.22
2022-11-10T16:24:27.990Z,54.65
2022-11-10T16:27:22.364Z,53.45
2022-11-10T16:30:18.527Z,49.67
2022-11-10T16:33:05.773Z,51.78
2022-11-10T16:35:57.802Z,42.22
2022-11-10T16:38:48.293Z,44.15
2022-11-10T16:41:37.022Z,42.45
2022-11-10T16:44:27.017Z,44.28
2022-11-10T16:47:22.251Z,43.70
2022-11-10T16:50:49.401Z,43.53
2022-11-10T16:56:44.096Z,47.60
2022-11-10T16:59:36.600Z,50.40
2022-11-10T17:02:42.015Z,59.70
2022-11-10T17:05:35.239Z,58.47
2022-11-10T17:08:34.634Z,62.78
2022-11-10T17:11:27.190Z,61.47
2022-11-10T17:14:17.185Z,67.82
2022-11-10T17:17:08.671Z,69.63
2022-11-10T17:19:58.048Z,69.35
2022-11-10T17:22:47.247Z,72.97
2022-11-10T17:25:38.625Z,72.75
2022-11-10T17:28:29.634Z,75.38
2022-11-10T17:31:18.180Z,75.45
2022-11-10T17:34:07.145Z,75.20
2022-11-10T17:36:56.326Z,78.45
2022-11-10T17:39:46.442Z,91.22
2022-11-10T17:42:36.306Z,97.35
2022-11-10T17:45:29.183Z,85.45
2022-11-10T17:48:18.176Z,89.25
2022-11-10T17:51:12.855Z,85.35
2022-11-10T17:54:08.745Z,88.95
2022-11-10T17:56:59.651Z,85.80
2022-11-10T17:59:51.108Z,84.10
2022-11-10T18:02:45.432Z,86.82
2022-11-10T18:05:34.159Z,85.38
2022-11-10T18:08:25.917Z,89.72
2022-11-10T18:11:20.723Z,82.25
2022-11-10T18:14:13.082Z,56.90
2022-11-10T18:17:04.240Z,75.93
2022-11-10T18:19:54.860Z,78.25
2022-11-10T18:22:46.264Z,70.97
2022-11-10T18:25:39.258Z,64.35
2022-11-10T18:28:28.736Z,68.03
2022-11-10T18:31:21.340Z,57.17
2022-11-10T18:34:12.423Z,57.45
2022-11-10T18:37:05.303Z,60.30
2022-11-10T18:39:57.702Z,52.22
2022-11-10T18:42:46.853Z,56.75
2022-11-10T18:45:34.957Z,55.30
2022-11-10T18:48:33.391Z,54.70
2022-11-10T18:51:24.333Z,62.10
2022-11-10T18:54:16.247Z,60.40
2022-11-10T18:57:05.679Z,54.78
2022-11-10T18:59:55.059Z,62.13
2022-11-10T19:02:44.815Z,59.28
2022-11-10T19:05:37.902Z,59.88
2022-11-10T19:11:25.970Z,63.15
2022-11-10T19:14:15.843Z,57.75
2022-11-10T19:17:11.269Z,63.50
2022-11-10T19:20:06.045Z,55.15
2022-11-10T19:22:54.504Z,57.92
2022-11-10T19:25:43.562Z,58.72
2022-11-10T19:28:34.917Z,58.42
2022-11-10T19:31:28.094Z,54.13
2022-11-10T19:34:22.501Z,57.42
2022-11-10T19:37:17.037Z,58.78
2022-11-10T19:40:09.620Z,58.63
2022-11-10T19:43:01.279Z,55.92
2022-11-10T19:45:49.652Z,54.60
2022-11-10T19:48:44.258Z,52.35
2022-11-10T19:51:35.912Z,52.35
2022-11-10T19:54:28.775Z,56.45
2022-11-10T19:57:24.344Z,55.03
2022-11-10T20:00:20.890Z,50.97
2022-11-10T20:03:11.697Z,61.60
2022-11-10T20:06:23.303Z,55.05
2022-11-10T20:09:14.644Z,56.42
2022-11-10T20:12:04.759Z,57.40
2022-11-10T20:14:53.265Z,58.38
2022-11-10T20:17:44.053Z,58.13
2022-11-10T20:23:37.226Z,53.47
2022-11-10T20:26:26.638Z,56.20
2022-11-10T20:29:17.901Z,58.22
2022-11-10T20:32:05.220Z,55.47
2022-11-10T20:34:55.707Z,55.28
2022-11-10T20:37:43.527Z,57.03
2022-11-10T20:40:44.033Z,59.15
2022-11-10T20:43:38.582Z,56.67
2022-11-10T20:46:52.735Z,52.20
2022-11-10T20:49:38.333Z,57.65
2022-11-10T20:52:36.508Z,51.83
2022-11-10T20:55:52.192Z,56.92
2022-11-10T20:58:38.614Z,57.20
2022-11-10T21:01:27.086Z,51.65
2022-11-10T21:04:17.258Z,54.22
2022-11-10T21:07:04.524Z,56.83
2022-11-10T21:09:52.222Z,51.78
2022-11-10T21:12:52.546Z,52.97
2022-11-10T21:15:46.035Z,56.95
2022-11-10T21:18:35.862Z,53.25
2022-11-10T21:21:47.647Z,57.65
2022-11-10T21:24:38.997Z,56.38
2022-11-10T21:27:27.145Z,54.88
2022-11-10T21:30:25.239Z,55.58
2022-11-10T21:33:19.704Z,53.58
2022-11-10T21:36:13.668Z,56.40
2022-11-10T21:39:03.922Z,55.38
2022-11-10T21:41:59.452Z,54.75
2022-11-10T21:44:53.424Z,62.35
2022-11-10T21:47:43.552Z,63.15
2022-11-10T21:50:33.251Z,58.20
2022-11-10T21:53:22.344Z,59.25
2022-11-10T21:56:12.177Z,60.40
2022-11-10T21:58:59.256Z,67.25
2022-11-10T22:01:49.428Z,68.93
2022-11-10T22:04:38.814Z,58.25
2022-11-10T22:07:30.900Z,63.30
2022-11-10T22:10:39.495Z,70.80
2022-11-10T22:13:48.954Z,63.97
2022-11-10T22:17:11.466Z,69.20
2022-11-10T22:20:01.338Z,60.28
2022-11-10T22:22:49.351Z,62.08
2022-11-10T22:25:39.059Z,59.65
2022-11-10T22:28:27.075Z,64.20
2022-11-10T22:31:14.456Z,57.60
2022-11-10T22:34:05.189Z,58.20
2022-11-10T22:37:09.186Z,57.65
2022-11-10T22:40:15.904Z,55.28
2022-11-10T22:43:26.202Z,56.42
2022-11-10T22:46:12.245Z,56.33
2022-11-10T22:49:01.923Z,60.80
2022-11-10T22:51:57.722Z,59.25
2022-11-10T22:54:47.993Z,62.00
2022-11-10T22:57:40.983Z,65.53
2022-11-10T23:00:34.141Z,58.67
2022-11-10T23:03:27.836Z,52.72
2022-11-10T23:06:21.803Z,56.13
2022-11-10T23:09:10.010Z,59.15
2022-11-10T23:12:01.911Z,54.00
2022-11-10T23:14:50.416Z,48.10
2022-11-10T23:17:39.834Z,51.83
2022-11-10T23:20:28.756Z,56.28
2022-11-10T23:23:17.631Z,56.35
2022-11-10T23:26:10.747Z,54.60
2022-11-10T23:29:00.827Z,48.83
2022-11-10T23:31:48.415Z,51.78
2022-11-10T23:34:38.524Z,53.40
2022-11-10T23:37:30.735Z,65.10
2022-11-10T23:40:18.749Z,56.13
2022-11-10T23:43:10.848Z,50.65
2022-11-10T23:46:09.287Z,53.58
2022-11-10T23:49:00.498Z,52.38
2022-11-10T23:51:51.984Z,54.40
2022-11-10T23:54:41.527Z,51.17
2022-11-10T23:57:31.680Z,49.53
